Time;durP1;ratioP1;P1;durP2;ratioP2;P2;SDS_P1;SDS_P2;PMS_P1;PMS_P2;Temp;Humidity;BMP_temperature;BMP_pressure;BME280_temperature;BME280_humidity;BME280_pressure;Samples;Min_cycle;Max_cycle;Signal;HPM_P1;HPM_P2
2021/11/24 00:01:51;;;;;;;22.47;16.17;;;;;;;7.92;100.00;102495.28;6232118;28;20334;-63
2021/11/24 00:05:12;;;;;;;17.07;14.23;;;;;;;7.96;100.00;102504.03;6214265;28;20221;-63
2021/11/24 00:08:33;;;;;;;16.53;14.03;;;;;;;7.77;100.00;102492.25;6240520;28;20233;-64
2021/11/24 00:11:53;;;;;;;17.40;15.07;;;;;;;7.86;100.00;102495.09;6228340;28;20232;-63
2021/11/24 00:15:15;;;;;;;19.97;15.10;;;;;;;8.04;100.00;102495.63;6231796;28;20236;-64
2021/11/24 00:18:38;;;;;;;18.37;14.60;;;;;;;8.14;100.00;102493.28;6235184;28;20205;-62
2021/11/24 00:21:59;;;;;;;16.53;14.67;;;;;;;7.99;100.00;102491.16;6230816;28;20212;-63
2021/11/24 00:25:20;;;;;;;16.80;14.03;;;;;;;7.88;100.00;102501.22;6229348;28;20224;-63
2021/11/24 00:28:41;;;;;;;15.70;13.73;;;;;;;8.34;100.00;102493.84;6231725;28;20208;-63
2021/11/24 00:32:03;;;;;;;17.37;12.27;;;;;;;8.24;100.00;102490.13;6237865;28;20214;-63
2021/11/24 00:35:25;;;;;;;14.30;12.67;;;;;;;8.09;100.00;102485.38;6235968;28;20221;-63
2021/11/24 00:38:46;;;;;;;13.77;12.20;;;;;;;7.95;100.00;102486.69;6227915;28;20197;-63
2021/11/24 00:42:07;;;;;;;14.47;12.43;;;;;;;8.03;100.00;102485.22;6233694;28;20209;-63
2021/11/24 00:45:28;;;;;;;12.73;11.53;;;;;;;7.94;100.00;102485.81;6233075;28;20229;-63
2021/11/24 00:48:49;;;;;;;11.93;10.73;;;;;;;8.20;100.00;102488.25;6232974;28;20216;-63
2021/11/24 00:52:11;;;;;;;16.27;12.80;;;;;;;8.40;100.00;102481.91;6230034;28;20303;-63
2021/11/24 00:55:33;;;;;;;14.17;12.17;;;;;;;7.96;100.00;102484.16;6227714;28;20224;-63
2021/11/24 00:58:54;;;;;;;12.27;11.07;;;;;;;7.75;100.00;102480.94;6232172;28;20232;-64
2021/11/24 01:02:15;;;;;;;12.70;11.30;;;;;;;7.91;100.00;102484.84;6236517;28;20220;-63
2021/11/24 01:05:36;;;;;;;13.47;11.57;;;;;;;7.94;100.00;102480.63;6228567;28;20594;-62
2021/11/24 01:08:58;;;;;;;13.33;12.07;;;;;;;7.63;100.00;102478.88;6230307;28;20788;-63
2021/11/24 01:12:20;;;;;;;13.37;11.97;;;;;;;7.45;100.00;102474.03;6231889;28;20208;-64
2021/11/24 01:15:41;;;;;;;12.97;11.70;;;;;;;7.69;100.00;102471.25;6234546;28;20221;-63
2021/11/24 01:19:03;;;;;;;13.40;11.83;;;;;;;7.85;100.00;102465.69;6231527;28;20229;-62
2021/11/24 01:22:24;;;;;;;12.70;10.77;;;;;;;7.72;100.00;102457.53;6235044;28;20204;-63
2021/11/24 01:25:46;;;;;;;14.80;10.87;;;;;;;7.70;100.00;102460.06;6224709;28;20233;-63
2021/11/24 01:29:07;;;;;;;11.80;10.67;;;;;;;7.88;100.00;102454.53;6224631;28;20299;-63
2021/11/24 01:32:28;;;;;;;13.20;11.80;;;;;;;7.93;100.00;102463.31;6234916;28;20220;-63
2021/11/24 01:35:49;;;;;;;13.20;11.90;;;;;;;7.86;100.00;102464.84;6234957;28;22096;-63
2021/11/24 01:39:10;;;;;;;14.67;13.17;;;;;;;7.64;100.00;102460.78;6229521;28;20229;-63
2021/11/24 01:42:33;;;;;;;13.60;12.30;;;;;;;7.88;100.00;102454.53;6230471;28;20189;-63
2021/11/24 01:45:54;;;;;;;13.57;12.17;;;;;;;7.94;100.00;102446.91;6228778;28;20260;-63
2021/11/24 01:49:15;;;;;;;13.50;11.53;;;;;;;8.15;100.00;102450.94;6228886;28;20311;-64
2021/11/24 01:52:36;;;;;;;12.77;11.30;;;;;;;8.25;100.00;102448.63;6232369;28;20221;-64
2021/11/24 01:56:00;;;;;;;15.23;13.57;;;;;;;8.24;100.00;102448.59;6232752;28;20220;-63
2021/11/24 01:59:23;;;;;;;13.50;12.13;;;;;;;8.28;100.00;102442.66;6225581;28;20233;-63
2021/11/24 02:02:44;;;;;;;13.20;11.17;;;;;;;7.68;100.00;102447.06;6220343;28;20334;-63
2021/11/24 02:06:04;;;;;;;13.43;11.13;;;;;;;8.13;100.00;102440.50;6226486;28;20566;-64
2021/11/24 02:09:25;;;;;;;13.57;12.33;;;;;;;7.74;100.00;102429.94;6222494;28;20548;-63
2021/11/24 02:12:47;;;;;;;15.23;11.97;;;;;;;7.80;100.00;102430.09;6220230;28;20472;-64
2021/11/24 02:16:09;;;;;;;13.60;12.20;;;;;;;7.64;100.00;102429.66;6222571;28;20229;-63
2021/11/24 02:19:33;;;;;;;16.10;13.00;;;;;;;7.88;100.00;102423.41;6226239;28;20239;-63
2021/11/24 02:22:55;;;;;;;14.87;13.43;;;;;;;7.49;100.00;102418.84;6223667;28;20202;-63
2021/11/24 02:26:17;;;;;;;15.50;12.57;;;;;;;7.86;100.00;102414.69;6226095;28;20533;-64
2021/11/24 02:29:40;;;;;;;14.93;13.53;;;;;;;7.64;100.00;102414.09;6228024;28;20229;-63
2021/11/24 02:33:01;;;;;;;18.00;13.70;;;;;;;7.85;100.00;102415.50;6227158;28;20201;-63
2021/11/24 02:36:23;;;;;;;13.90;12.50;;;;;;;7.93;100.00;102408.84;6230353;28;20598;-62
2021/11/24 02:39:48;;;;;;;17.23;14.47;;;;;;;7.71;100.00;102401.28;6232874;28;20232;-63
2021/11/24 02:43:10;;;;;;;14.87;13.47;;;;;;;7.86;100.00;102400.00;6234896;28;20276;-62
2021/11/24 02:46:31;;;;;;;14.93;13.47;;;;;;;7.79;100.00;102392.91;6237689;28;20232;-63
2021/11/24 02:49:54;;;;;;;16.50;13.33;;;;;;;7.76;100.00;102398.00;6232819;28;20229;-63
2021/11/24 02:53:15;;;;;;;15.17;13.70;;;;;;;7.54;100.00;102399.13;6234802;28;20221;-63
2021/11/24 02:56:39;;;;;;;16.40;14.47;;;;;;;7.32;100.00;102396.72;6238081;28;20220;-63
2021/11/24 03:00:00;;;;;;;14.07;12.70;;;;;;;7.54;100.00;102386.16;6233162;28;20714;-62
2021/11/24 03:03:21;;;;;;;15.93;14.40;;;;;;;7.24;100.00;102384.41;6237066;28;20225;-63
2021/11/24 03:06:42;;;;;;;15.37;13.87;;;;;;;7.43;100.00;102392.75;6224910;28;20232;-62
2021/11/24 03:10:04;;;;;;;14.87;13.33;;;;;;;7.49;100.00;102382.53;6237323;28;20315;-63
2021/11/24 03:13:26;;;;;;;13.33;12.13;;;;;;;7.81;100.00;102391.22;6236233;28;20205;-63
2021/11/24 03:16:48;;;;;;;14.97;13.47;;;;;;;7.48;100.00;102368.72;6234549;28;20512;-64
2021/11/24 03:20:10;;;;;;;13.30;11.93;;;;;;;7.95;100.00;102373.44;6221098;28;20233;-63
2021/11/24 03:23:31;;;;;;;12.27;10.93;;;;;;;7.75;100.00;102361.63;6234279;28;20202;-63
2021/11/24 03:26:52;;;;;;;12.33;11.13;;;;;;;7.88;100.00;102363.72;6235792;28;20213;-62
2021/11/24 03:30:16;;;;;;;10.37;9.03;;;;;;;8.05;100.00;102351.22;6238188;28;20327;-63
2021/11/24 03:33:38;;;;;;;9.43;8.53;;;;;;;7.43;100.00;102351.28;6232555;28;20229;-63
2021/11/24 03:36:58;;;;;;;10.20;9.20;;;;;;;7.67;100.00;102357.13;6235784;28;20212;-63
2021/11/24 03:40:21;;;;;;;11.93;10.80;;;;;;;7.43;100.00;102357.31;6235988;28;20315;-62
2021/11/24 03:43:42;;;;;;;12.17;11.07;;;;;;;7.64;100.00;102354.47;6233586;28;20473;-63
2021/11/24 03:47:05;;;;;;;11.17;10.00;;;;;;;7.63;100.00;102352.69;6237199;28;20218;-63
2021/11/24 03:50:27;;;;;;;11.17;9.63;;;;;;;7.69;100.00;102355.44;6234450;28;20319;-63
2021/11/24 03:53:49;;;;;;;11.63;10.53;;;;;;;7.78;100.00;102348.78;6236066;28;20691;-63
2021/11/24 03:57:09;;;;;;;12.70;11.43;;;;;;;7.68;100.00;102353.69;6235732;28;20197;-63
2021/11/24 04:00:33;;;;;;;12.23;11.03;;;;;;;7.79;100.00;102354.00;6235423;28;20217;-63
2021/11/24 04:03:55;;;;;;;11.93;10.77;;;;;;;7.68;100.00;102353.69;6234015;28;20221;-63
2021/11/24 04:07:16;;;;;;;13.17;11.73;;;;;;;7.74;100.00;102352.13;6235545;28;20217;-64
2021/11/24 04:10:37;;;;;;;11.43;10.20;;;;;;;7.92;100.00;102334.44;6228834;28;20286;-63
2021/11/24 04:13:58;;;;;;;12.00;10.93;;;;;;;7.91;100.00;102340.47;6226764;28;20213;-63
2021/11/24 04:17:21;;;;;;;12.53;11.43;;;;;;;8.22;100.00;102336.94;6238849;28;20201;-63
2021/11/24 04:20:43;;;;;;;11.77;10.57;;;;;;;8.26;100.00;102337.91;6230843;28;20371;-63
2021/11/24 04:24:05;;;;;;;11.33;10.23;;;;;;;7.89;100.00;102349.94;6234975;28;20514;-62
2021/11/24 04:27:25;;;;;;;11.17;10.20;;;;;;;7.62;100.00;102348.34;6234112;28;20602;-62
2021/11/24 04:30:46;;;;;;;11.70;10.63;;;;;;;7.83;100.00;102341.97;6232580;28;20232;-63
2021/11/24 04:34:07;;;;;;;11.80;10.60;;;;;;;8.04;100.00;102332.16;6234482;28;20228;-62
2021/11/24 04:37:30;;;;;;;11.97;10.87;;;;;;;8.27;100.00;102326.66;6231965;28;20291;-64
2021/11/24 04:40:51;;;;;;;11.83;10.83;;;;;;;8.33;100.00;102326.81;6231601;28;20260;-64
2021/11/24 04:44:12;;;;;;;13.33;11.87;;;;;;;8.03;100.00;102326.94;6233293;28;20232;-64
2021/11/24 04:47:33;;;;;;;12.23;11.13;;;;;;;8.17;100.00;102327.28;6230610;28;20326;-64
2021/11/24 04:50:54;;;;;;;13.57;12.27;;;;;;;7.86;100.00;102326.50;6231991;28;20517;-64
2021/11/24 04:54:16;;;;;;;14.13;12.83;;;;;;;8.05;100.00;102323.53;6233942;28;20236;-63
2021/11/24 04:57:38;;;;;;;13.77;12.47;;;;;;;8.02;100.00;102318.25;6235274;28;20500;-63
2021/11/24 05:00:59;;;;;;;13.97;12.73;;;;;;;7.92;100.00;102320.59;6227725;28;20216;-63
2021/11/24 05:04:22;;;;;;;14.37;12.87;;;;;;;7.93;100.00;102310.28;6230207;28;20252;-62
2021/11/24 05:07:43;;;;;;;13.17;11.63;;;;;;;8.47;100.00;102302.13;6232718;28;20217;-63
2021/11/24 05:11:05;;;;;;;13.47;11.53;;;;;;;8.17;100.00;102296.16;6234544;28;20307;-63
2021/11/24 05:14:30;;;;;;;12.53;11.27;;;;;;;8.00;100.00;102293.13;6231862;28;20228;-62
2021/11/24 05:17:54;;;;;;;12.83;11.63;;;;;;;7.64;100.00;102302.59;6233250;28;20213;-62
2021/11/24 05:21:24;;;;;;;10.77;9.87;;;;;;;7.99;100.00;102307.81;6231833;28;20220;-62
2021/11/24 05:24:45;;;;;;;10.67;9.67;;;;;;;7.96;100.00;102299.94;6236091;28;20578;-64
2021/11/24 05:28:07;;;;;;;9.77;8.77;;;;;;;8.00;100.00;102299.19;6233702;28;20213;-62
2021/11/24 05:31:28;;;;;;;9.87;8.97;;;;;;;7.71;100.00;102303.63;6227093;28;20315;-63
2021/11/24 05:34:49;;;;;;;11.60;10.53;;;;;;;7.85;100.00;102309.16;6231046;28;20225;-62
2021/11/24 05:38:10;;;;;;;11.67;10.67;;;;;;;7.78;100.00;102317.66;6233030;28;20491;-63
2021/11/24 05:41:31;;;;;;;12.00;10.93;;;;;;;7.66;100.00;102313.88;6225132;28;20228;-63
2021/11/24 05:45:02;;;;;;;13.03;11.80;;;;;;;7.72;100.00;102317.50;6233853;28;20232;-63
2021/11/24 05:48:24;;;;;;;16.07;11.70;;;;;;;7.77;100.00;102315.88;6234620;28;20252;-64
2021/11/24 05:51:45;;;;;;;11.63;10.63;;;;;;;7.82;100.00;102309.09;6222424;28;20229;-63
2021/11/24 05:55:07;;;;;;;12.77;11.67;;;;;;;8.01;100.00;102303.56;6233530;28;20224;-62
2021/11/24 05:58:28;;;;;;;12.20;11.10;;;;;;;8.07;100.00;102295.91;6236760;28;20197;-64
2021/11/24 06:01:51;;;;;;;13.10;11.80;;;;;;;7.91;100.00;102304.16;6229633;28;21839;-64
2021/11/24 06:05:13;;;;;;;12.90;11.70;;;;;;;7.99;100.00;102300.03;6221004;28;20239;-64
2021/11/24 06:08:34;;;;;;;12.97;11.83;;;;;;;8.43;100.00;102297.69;6234187;28;20240;-63
2021/11/24 06:11:54;;;;;;;13.13;11.83;;;;;;;8.15;100.00;102297.84;6226238;28;20212;-64
2021/11/24 06:15:16;;;;;;;14.67;13.33;;;;;;;7.95;100.00;102297.31;6231656;28;20839;-64
2021/11/24 06:18:38;;;;;;;14.33;13.00;;;;;;;7.78;100.00;102287.41;6225696;28;20445;-63
2021/11/24 06:21:59;;;;;;;14.37;12.97;;;;;;;7.82;100.00;102290.94;6222346;28;20244;-64
2021/11/24 06:25:20;;;;;;;14.53;13.13;;;;;;;7.98;100.00;102303.47;6231855;28;20547;-63
2021/11/24 06:28:43;;;;;;;16.93;15.23;;;;;;;7.84;100.00;102295.34;6230193;28;20482;-63
2021/11/24 06:32:05;;;;;;;14.47;13.17;;;;;;;7.59;100.00;102291.22;6224866;28;21407;-63
2021/11/24 06:35:27;;;;;;;16.07;12.80;;;;;;;7.94;100.00;102296.44;6227419;28;20228;-63
2021/11/24 06:38:48;;;;;;;12.57;11.37;;;;;;;7.45;100.00;102300.34;6225679;28;20208;-64
2021/11/24 06:42:09;;;;;;;13.40;12.03;;;;;;;7.49;100.00;102304.78;6228950;28;20206;-64
2021/11/24 06:45:31;;;;;;;11.00;10.00;;;;;;;7.15;100.00;102298.63;6228172;28;20233;-63
2021/11/24 06:48:51;;;;;;;11.70;10.67;;;;;;;7.10;100.00;102295.06;6215972;28;20285;-64
2021/11/24 06:52:14;;;;;;;10.90;9.70;;;;;;;7.47;100.00;102296.94;6210233;28;20221;-63
2021/11/24 06:55:35;;;;;;;11.97;10.77;;;;;;;7.80;100.00;102284.84;6220293;28;20237;-64
2021/11/24 06:58:56;;;;;;;11.53;10.37;;;;;;;7.82;100.00;102281.44;6212893;28;20194;-63
2021/11/24 07:02:17;;;;;;;12.57;11.47;;;;;;;7.63;100.00;102287.84;6214368;28;20237;-64
2021/11/24 07:05:38;;;;;;;14.83;12.97;;;;;;;7.43;100.00;102289.06;6220946;28;20232;-63
2021/11/24 07:09:00;;;;;;;14.03;11.73;;;;;;;7.84;100.00;102290.16;6223441;28;20654;-63
2021/11/24 07:12:23;;;;;;;15.10;13.70;;;;;;;7.71;100.00;102284.59;6215257;28;20202;-63
2021/11/24 07:15:44;;;;;;;15.00;13.57;;;;;;;7.36;100.00;102293.19;6222107;28;20524;-63
2021/11/24 07:19:05;;;;;;;17.00;15.37;;;;;;;7.55;100.00;102288.50;6213895;28;20264;-63
2021/11/24 07:22:26;;;;;;;15.07;13.30;;;;;;;7.23;100.00;102294.56;6228152;28;20220;-63
2021/11/24 07:25:48;;;;;;;15.13;13.60;;;;;;;7.37;100.00;102296.66;6232736;28;20237;-63
2021/11/24 07:29:10;;;;;;;16.10;14.27;;;;;;;7.36;100.00;102298.38;6234860;28;20233;-62
2021/11/24 07:32:31;;;;;;;16.53;14.03;;;;;;;7.32;100.00;102295.66;6235274;28;20304;-63
2021/11/24 07:35:52;;;;;;;16.50;14.70;;;;;;;7.59;100.00;102290.34;6235540;28;20224;-63
2021/11/24 07:39:13;;;;;;;14.47;12.90;;;;;;;7.86;100.00;102279.81;6239637;28;20232;-62
2021/11/24 07:42:35;;;;;;;14.57;13.17;;;;;;;8.09;100.00;102276.06;6234695;28;20249;-63
2021/11/24 07:45:56;;;;;;;15.77;14.07;;;;;;;8.56;100.00;102274.59;6230004;28;20225;-64
2021/11/24 07:49:17;;;;;;;16.90;14.23;;;;;;;7.91;100.00;102275.63;6230278;28;20233;-63
2021/11/24 07:52:38;;;;;;;17.40;13.70;;;;;;;8.32;100.00;102270.56;6232248;28;20323;-63
2021/11/24 07:55:59;;;;;;;13.37;12.03;;;;;;;8.14;100.00;102275.31;6232454;28;20255;-63
2021/11/24 07:59:21;;;;;;;13.27;11.97;;;;;;;8.14;100.00;102272.72;6233814;28;20503;-64
2021/11/24 08:02:43;;;;;;;15.32;13.93;;;;;;;7.56;100.00;102279.88;6230760;28;20742;-63
2021/11/24 08:06:04;;;;;;;15.73;14.20;;;;;;;7.95;100.00;102274.88;6236408;28;20224;-63
2021/11/24 08:09:25;;;;;;;15.93;14.33;;;;;;;7.72;100.00;102283.78;6228114;28;20327;-64
2021/11/24 08:12:46;;;;;;;13.27;11.97;;;;;;;7.87;100.00;102273.78;6220823;28;20237;-63
2021/11/24 08:16:09;;;;;;;14.53;13.20;;;;;;;7.85;100.00;102278.03;6234834;28;20240;-64
2021/11/24 08:19:29;;;;;;;14.43;13.03;;;;;;;7.60;100.00;102274.84;6233329;28;20224;-64
2021/11/24 08:22:50;;;;;;;17.23;15.50;;;;;;;7.92;100.00;102277.38;6235362;28;20520;-63
2021/11/24 08:26:11;;;;;;;16.70;15.10;;;;;;;8.23;100.00;102271.22;6238832;28;20311;-63
2021/11/24 08:29:32;;;;;;;15.67;13.20;;;;;;;7.80;100.00;102274.47;6236391;28;20236;-63
2021/11/24 08:32:55;;;;;;;14.73;13.33;;;;;;;8.00;100.00;102267.19;6236445;28;20213;-64
2021/11/24 08:36:16;;;;;;;15.77;14.17;;;;;;;7.56;100.00;102261.72;6231445;28;21255;-65
2021/11/24 08:39:37;;;;;;;16.30;14.20;;;;;;;8.00;100.00;102251.63;6235937;28;20266;-64
2021/11/24 08:42:58;;;;;;;14.97;13.27;;;;;;;7.64;100.00;102258.53;6230350;28;20321;-63
2021/11/24 08:46:20;;;;;;;15.13;12.80;;;;;;;7.54;100.00;102261.72;6235842;28;20335;-63
2021/11/24 08:49:42;;;;;;;14.83;13.40;;;;;;;7.90;100.00;102253.09;6235306;28;20236;-63
2021/11/24 08:53:04;;;;;;;14.73;13.20;;;;;;;7.79;100.00;102262.31;6233219;28;20778;-64
2021/11/24 08:56:25;;;;;;;14.93;13.40;;;;;;;7.96;100.00;102263.63;6210091;28;20232;-64
2021/11/24 08:59:47;;;;;;;15.97;13.77;;;;;;;7.63;100.00;102261.94;6235533;28;20295;-64
2021/11/24 09:03:10;;;;;;;14.63;13.23;;;;;;;7.98;100.00;102261.94;6232502;28;20220;-64
2021/11/24 09:06:32;;;;;;;15.67;14.07;;;;;;;7.90;100.00;102260.88;6231431;28;20232;-63
2021/11/24 09:09:53;;;;;;;16.83;15.13;;;;;;;7.76;100.00;102257.09;6230771;28;20229;-64
2021/11/24 09:13:14;;;;;;;14.73;13.20;;;;;;;7.77;100.00;102269.19;6234240;28;20205;-63
2021/11/24 09:16:35;;;;;;;16.43;14.77;;;;;;;7.60;100.00;102255.78;6236361;28;20228;-63
2021/11/24 09:19:56;;;;;;;14.90;13.40;;;;;;;7.80;100.00;102257.19;6234061;28;20373;-63
2021/11/24 09:23:21;;;;;;;17.13;15.40;;;;;;;7.86;100.00;102259.06;6231363;28;21102;-61
2021/11/24 09:26:45;;;;;;;15.37;13.77;;;;;;;7.92;100.00;102242.78;6228932;28;20240;-64
2021/11/24 09:30:07;;;;;;;15.03;13.07;;;;;;;8.03;100.00;102247.38;6231114;28;20232;-64
2021/11/24 09:33:28;;;;;;;16.73;14.93;;;;;;;8.63;100.00;102245.34;6207344;28;20197;-63
2021/11/24 09:36:49;;;;;;;16.87;13.60;;;;;;;8.31;100.00;102237.66;6235460;28;20232;-64
2021/11/24 09:40:13;;;;;;;13.93;12.57;;;;;;;8.80;100.00;102243.06;6238154;28;20318;-64
2021/11/24 09:43:37;;;;;;;16.70;15.07;;;;;;;8.90;100.00;102233.75;6219691;28;20209;-63
2021/11/24 09:47:01;;;;;;;14.77;13.33;;;;;;;9.96;96.78;102222.69;6226992;28;20221;-63
2021/11/24 09:50:25;;;;;;;13.80;12.47;;;;;;;9.84;94.50;102212.94;6224624;28;20770;-63
2021/11/24 09:53:46;;;;;;;14.03;12.60;;;;;;;9.58;98.34;102213.41;6231724;28;20252;-64
2021/11/24 09:57:09;;;;;;;14.80;13.37;;;;;;;8.73;100.00;102210.91;6238063;28;20198;-63
2021/11/24 10:00:31;;;;;;;13.80;12.47;;;;;;;8.46;100.00;102206.88;6234802;28;20251;-64
2021/11/24 10:03:52;;;;;;;15.60;14.10;;;;;;;8.45;100.00;102210.34;6232755;28;20312;-64
2021/11/24 10:07:15;;;;;;;15.70;13.57;;;;;;;8.94;100.00;102199.22;6227569;28;20321;-64
2021/11/24 10:10:36;;;;;;;15.33;13.93;;;;;;;8.91;100.00;102199.13;6224628;28;22363;-63
2021/11/24 10:14:00;;;;;;;15.63;14.23;;;;;;;8.91;100.00;102199.13;6222556;28;20210;-64
2021/11/24 10:17:23;;;;;;;14.33;12.93;;;;;;;8.34;100.00;102193.59;6225432;28;20705;-64
2021/11/24 10:20:52;;;;;;;15.73;14.23;;;;;;;8.95;100.00;102201.81;6210090;28;20224;-63
2021/11/24 10:24:13;;;;;;;13.30;11.90;;;;;;;8.32;100.00;102192.69;6224441;28;20517;-63
2021/11/24 10:27:38;;;;;;;13.53;12.33;;;;;;;8.74;100.00;102191.88;6226296;28;20213;-64
2021/11/24 10:31:00;;;;;;;14.20;12.13;;;;;;;9.22;100.00;102179.81;6210738;28;20633;-64
2021/11/24 10:34:24;;;;;;;13.53;11.73;;;;;;;9.85;96.52;102173.09;6218428;28;20726;-63
2021/11/24 10:37:45;;;;;;;15.13;12.40;;;;;;;9.92;95.72;102166.22;6217291;28;20295;-63
2021/11/24 10:41:07;;;;;;;13.13;11.83;;;;;;;9.24;98.62;102165.97;6191302;28;20236;-63
2021/11/24 10:44:30;;;;;;;13.40;12.00;;;;;;;8.88;100.00;102153.22;6231135;28;20279;-63
2021/11/24 10:47:54;;;;;;;14.07;12.67;;;;;;;8.85;100.00;102154.00;6219474;28;20210;-64
2021/11/24 10:51:29;;;;;;;15.97;13.90;;;;;;;8.36;100.00;102158.16;6215867;28;20233;-64
2021/11/24 10:55:10;;;;;;;13.33;12.20;;;;;;;8.27;100.00;102153.63;6226545;28;20232;-63
2021/11/24 10:58:36;;;;;;;13.37;11.97;;;;;;;8.77;100.00;102144.31;6223374;28;20196;-64
2021/11/24 11:02:30;;;;;;;12.93;10.53;;;;;;;9.12;100.00;102144.97;6221831;28;20221;-65
2021/11/24 11:05:54;;;;;;;11.07;9.93;;;;;;;9.23;100.00;102140.84;6196611;28;20334;-65
2021/11/24 11:09:15;;;;;;;10.27;9.17;;;;;;;8.78;100.00;102136.56;6218904;28;20260;-63
2021/11/24 11:12:37;;;;;;;11.93;10.27;;;;;;;8.96;100.00;102132.56;6221584;28;20473;-63
2021/11/24 11:15:59;;;;;;;10.37;9.40;;;;;;;9.37;99.40;102119.41;6232815;28;20224;-63
2021/11/24 11:19:40;;;;;;;9.70;8.67;;;;;;;9.53;96.49;102115.34;6227346;28;20509;-64
2021/11/24 11:23:11;;;;;;;8.80;7.30;;;;;;;9.48;95.24;102111.78;6223077;28;20545;-63
2021/11/24 11:26:32;;;;;;;8.07;6.60;;;;;;;9.94;92.17;102105.53;6228128;28;20223;-64
2021/11/24 11:29:54;;;;;;;7.47;5.60;;;;;;;9.47;91.92;102092.72;6229041;28;20218;-64
2021/11/24 11:33:16;;;;;;;5.93;5.37;;;;;;;9.61;91.32;102092.91;6232891;28;20228;-63
2021/11/24 11:36:37;;;;;;;5.93;5.33;;;;;;;9.76;88.55;102084.47;6230056;28;20264;-63
2021/11/24 11:40:00;;;;;;;7.30;5.80;;;;;;;9.39;90.35;102083.91;6232791;28;20261;-62
2021/11/24 11:43:22;;;;;;;5.10;4.60;;;;;;;9.68;89.43;102071.34;6232345;28;20193;-63
2021/11/24 11:46:46;;;;;;;6.07;5.53;;;;;;;9.44;88.37;102071.84;6225399;28;20229;-63
2021/11/24 11:50:08;;;;;;;5.17;4.77;;;;;;;9.52;90.31;102069.38;6236832;28;20229;-62
2021/11/24 11:53:31;;;;;;;5.77;4.10;;;;;;;9.24;89.27;102059.41;6243490;28;20213;-62
2021/11/24 11:56:54;;;;;;;5.43;4.30;;;;;;;8.99;89.45;102062.44;6243109;28;20213;-63
2021/11/24 12:00:15;;;;;;;5.87;4.67;;;;;;;8.95;92.16;102051.13;6238794;28;20224;-62
2021/11/24 12:04:03;;;;;;;6.73;6.10;;;;;;;8.56;94.51;102051.28;6232732;28;20197;-63
2021/11/24 12:07:25;;;;;;;7.90;6.77;;;;;;;8.54;95.88;102053.84;6235939;28;20228;-63
2021/11/24 12:10:59;;;;;;;6.50;5.90;;;;;;;8.93;94.52;102031.16;6222964;28;20346;-63
2021/11/24 12:14:44;;;;;;;7.27;6.63;;;;;;;8.86;93.89;102036.25;6230299;28;20228;-63
2021/11/24 12:18:11;;;;;;;8.40;7.47;;;;;;;8.82;94.99;102023.19;6227700;28;20189;-63
2021/11/24 12:21:32;;;;;;;8.00;7.30;;;;;;;8.69;94.82;102011.72;6235713;28;20229;-62
2021/11/24 12:24:53;;;;;;;8.57;7.77;;;;;;;8.56;97.14;102009.75;6225847;28;20253;-61
2021/11/24 12:28:16;;;;;;;8.23;7.33;;;;;;;8.56;96.04;101999.34;6220823;28;20218;-62
2021/11/24 12:31:38;;;;;;;10.00;6.43;;;;;;;9.07;92.03;101993.28;6217576;28;20613;-62
2021/11/24 12:35:01;;;;;;;7.50;6.37;;;;;;;8.96;91.13;101995.72;6220768;28;20236;-62
2021/11/24 12:38:23;;;;;;;7.47;6.50;;;;;;;8.74;91.56;101994.47;6229286;28;20242;-63
2021/11/24 12:41:45;;;;;;;8.10;6.27;;;;;;;8.53;92.66;101984.59;6199379;28;20220;-63
2021/11/24 12:45:06;;;;;;;6.97;6.37;;;;;;;8.85;90.36;101977.34;6228717;28;20319;-64
2021/11/24 12:48:33;;;;;;;7.40;6.70;;;;;;;8.94;91.71;101983.56;6216452;28;20220;-64
2021/11/24 12:51:58;;;;;;;7.87;6.40;;;;;;;8.94;90.91;101970.56;6223033;28;20228;-63
2021/11/24 12:55:19;;;;;;;9.90;6.90;;;;;;;9.01;91.77;101964.59;6217386;28;21801;-64
2021/11/24 12:58:41;;;;;;;8.77;6.77;;;;;;;8.88;90.86;101968.75;6208062;28;20234;-62
2021/11/24 13:02:05;;;;;;;6.63;6.03;;;;;;;8.70;93.71;101955.44;6202556;28;20304;-64
2021/11/24 13:05:28;;;;;;;5.93;5.20;;;;;;;8.60;92.29;101955.28;6200134;28;21746;-63
2021/11/24 13:09:01;;;;;;;6.53;5.87;;;;;;;8.76;92.36;101946.06;6210231;28;20217;-63
2021/11/24 13:12:24;;;;;;;7.13;5.60;;;;;;;8.90;90.88;101950.56;6209784;28;20209;-63
2021/11/24 13:15:45;;;;;;;5.43;4.90;;;;;;;9.36;87.14;101948.66;6217820;28;20232;-63
2021/11/24 13:19:06;;;;;;;8.30;4.70;;;;;;;8.86;88.75;101945.34;6218066;28;20248;-63
2021/11/24 13:22:36;;;;;;;8.27;5.00;;;;;;;8.72;89.78;101938.16;6219118;28;20212;-63
2021/11/24 13:25:57;;;;;;;7.50;5.43;;;;;;;8.85;89.00;101940.13;6210472;28;20315;-63
2021/11/24 13:29:18;;;;;;;6.27;4.77;;;;;;;8.35;91.35;101938.38;6222575;28;20228;-63
2021/11/24 13:32:54;;;;;;;5.50;5.00;;;;;;;8.57;91.37;101936.19;6217623;28;20232;-64
2021/11/24 13:36:18;;;;;;;6.57;4.87;;;;;;;8.53;91.69;101927.50;6217869;28;20236;-64
2021/11/24 13:39:40;;;;;;;7.97;5.93;;;;;;;8.75;90.29;101922.66;6209915;28;20240;-64
2021/11/24 13:43:01;;;;;;;5.30;4.80;;;;;;;8.78;91.78;101923.56;6211769;28;20205;-63
2021/11/24 13:46:26;;;;;;;5.37;4.97;;;;;;;8.76;91.71;101907.09;6208633;28;20666;-64
2021/11/24 13:49:47;;;;;;;6.20;5.30;;;;;;;8.57;92.01;101900.72;6212115;28;20233;-63
2021/11/24 13:53:27;;;;;;;7.70;5.53;;;;;;;8.60;92.78;101895.56;6212485;28;20257;-63
2021/11/24 13:56:51;;;;;;;4.30;3.93;;;;;;;8.14;94.57;101906.84;6212368;28;20220;-64
2021/11/24 14:00:13;;;;;;;4.87;4.47;;;;;;;8.45;93.32;101888.41;6209762;28;20235;-64
2021/11/24 14:03:34;;;;;;;8.27;4.53;;;;;;;8.61;91.65;101892.13;6209523;28;20874;-64
2021/11/24 14:07:03;;;;;;;6.37;4.70;;;;;;;8.28;94.08;101880.28;6223940;28;20559;-63
2021/11/24 14:10:25;;;;;;;5.23;4.53;;;;;;;8.27;94.45;101882.84;6224604;28;20706;-64
2021/11/24 14:13:47;;;;;;;7.63;4.87;;;;;;;8.22;95.95;101880.19;6222589;28;20288;-63
2021/11/24 14:17:10;;;;;;;4.50;4.07;;;;;;;8.52;93.09;101870.34;6230682;28;20206;-63
2021/11/24 14:20:34;;;;;;;4.40;3.97;;;;;;;8.32;93.78;101864.75;6217571;28;20252;-64
2021/11/24 14:24:04;;;;;;;3.10;2.90;;;;;;;8.29;93.65;101861.25;6224159;28;20579;-64
2021/11/24 14:27:24;;;;;;;3.50;3.20;;;;;;;8.33;93.12;101864.78;6229452;28;20208;-64
2021/11/24 14:30:48;;;;;;;5.50;3.30;;;;;;;8.73;91.78;101860.28;6225425;28;20253;-62
2021/11/24 14:34:09;;;;;;;8.77;3.80;;;;;;;8.12;92.79;101865.28;6225019;28;20232;-63
2021/11/24 14:37:30;;;;;;;3.33;3.03;;;;;;;7.95;92.81;101866.69;6230675;28;20217;-63
2021/11/24 14:40:51;;;;;;;3.17;2.87;;;;;;;8.26;92.36;101865.56;6222629;28;20236;-64
2021/11/24 14:44:13;;;;;;;4.07;3.07;;;;;;;8.18;91.69;101856.75;6229410;28;20724;-64
2021/11/24 14:47:35;;;;;;;2.47;2.27;;;;;;;8.24;91.53;101862.06;6219887;28;20299;-63
2021/11/24 14:50:56;;;;;;;3.20;2.57;;;;;;;8.27;92.32;101862.09;6216055;28;20260;-62
2021/11/24 14:54:18;;;;;;;2.63;2.43;;;;;;;8.27;92.42;101867.28;6224357;28;20225;-64
2021/11/24 14:57:39;;;;;;;2.97;2.77;;;;;;;8.22;91.24;101854.25;6227937;28;20265;-64
2021/11/24 15:01:00;;;;;;;3.33;2.97;;;;;;;8.17;91.84;101862.78;6227297;28;20525;-65
2021/11/24 15:04:24;;;;;;;3.10;2.43;;;;;;;8.11;92.60;101853.19;6219742;28;20259;-64
2021/11/24 15:07:45;;;;;;;3.30;2.80;;;;;;;8.13;92.81;101848.03;6229626;28;20629;-63
2021/11/24 15:11:06;;;;;;;6.07;2.90;;;;;;;8.27;91.11;101841.34;6221422;28;20225;-64
2021/11/24 15:14:28;;;;;;;3.97;3.07;;;;;;;8.11;92.95;101845.41;6201642;28;20248;-64
2021/11/24 15:17:49;;;;;;;3.63;3.33;;;;;;;8.13;93.00;101833.31;6230172;28;20201;-64
2021/11/24 15:21:11;;;;;;;2.73;2.50;;;;;;;8.02;91.95;101835.72;6202503;28;20225;-65
2021/11/24 15:24:32;;;;;;;3.23;2.93;;;;;;;8.13;90.66;101830.72;6211050;28;20599;-64
2021/11/24 15:27:53;;;;;;;4.80;2.57;;;;;;;8.62;88.03;101826.34;6220522;28;20198;-64
2021/11/24 15:31:15;;;;;;;4.53;3.23;;;;;;;8.23;89.70;101829.16;6224007;28;20264;-63